Time;durP1;ratioP1;P1;durP2;ratioP2;P2;SDS_P1;SDS_P2;PMS_P1;PMS_P2;Temp;Humidity;BMP_temperature;BMP_pressure;BME280_temperature;BME280_humidity;BME280_pressure;Samples;Min_cycle;Max_cycle;Signal;HPM_P1;HPM_P2
2022/09/28 00:01:24;;;;;;;4.13;3.17;;;10.60;71.10;;;;;;5113748;28;20554;-69
2022/09/28 00:03:57;;;;;;;4.55;3.60;;;10.60;71.00;;;;;;5119218;27;20102;-69
2022/09/28 00:06:24;;;;;;;5.90;2.90;;;10.60;71.10;;;;;;5113706;28;20070;-69
2022/09/28 00:08:50;;;;;;;3.40;2.67;;;10.60;71.10;;;;;;5113645;28;20040;-69
2022/09/28 00:11:18;;;;;;;5.25;3.90;;;10.60;71.10;;;;;;5113385;28;20122;-69
2022/09/28 00:13:47;;;;;;;5.28;4.13;;;10.60;71.10;;;;;;5113859;28;20517;-69
2022/09/28 00:16:15;;;;;;;3.60;2.45;;;10.60;71.00;;;;;;5113683;28;20034;-69
2022/09/28 00:18:42;;;;;;;7.05;3.03;;;10.60;71.00;;;;;;5096667;28;20046;-69
2022/09/28 00:21:14;;;;;;;4.07;2.80;;;10.60;71.00;;;;;;5113367;28;20136;-69
2022/09/28 00:26:27;;;;;;;3.33;2.60;;;10.60;71.00;;;;;;5112979;28;20063;-70
2022/09/28 00:28:54;;;;;;;5.20;2.58;;;10.60;71.00;;;;;;5113636;28;20055;-69
2022/09/28 00:31:20;;;;;;;5.03;3.05;;;10.60;71.00;;;;;;5096044;28;20407;-69
2022/09/28 00:33:51;;;;;;;4.25;2.47;;;10.60;71.00;;;;;;5113090;28;20040;-70
2022/09/28 00:36:17;;;;;;;4.32;3.17;;;10.60;71.00;;;;;;5113363;28;20035;-69
2022/09/28 00:38:43;;;;;;;3.25;2.88;;;10.60;70.90;;;;;;5113060;28;20040;-69
2022/09/28 00:41:12;;;;;;;3.20;2.75;;;10.60;70.90;;;;;;5113105;28;20055;-69
2022/09/28 00:43:38;;;;;;;4.25;3.25;;;10.60;70.90;;;;;;5112716;28;20096;-69
2022/09/28 00:46:16;;;;;;;3.30;2.70;;;10.60;70.80;;;;;;5113358;28;20106;-69
2022/09/28 00:48:53;;;;;;;4.53;3.45;;;10.60;70.70;;;;;;5112927;28;20491;-69
2022/09/28 00:51:19;;;;;;;3.88;2.97;;;10.60;70.70;;;;;;5112757;28;20050;-69
2022/09/28 00:53:45;;;;;;;4.13;3.08;;;10.60;70.60;;;;;;5112722;28;20503;-69
2022/09/28 00:56:17;;;;;;;4.75;4.18;;;10.60;70.50;;;;;;5112885;28;20036;-69
2022/09/28 00:58:47;;;;;;;5.18;3.45;;;10.60;70.50;;;;;;5096102;28;20432;-69
2022/09/28 01:01:13;;;;;;;3.80;3.22;;;10.60;70.40;;;;;;5112765;28;20040;-69
2022/09/28 01:03:48;;;;;;;4.45;3.08;;;10.60;70.30;;;;;;5112213;28;20043;-69
2022/09/28 01:06:22;;;;;;;4.57;2.92;;;10.60;70.40;;;;;;5112650;28;20043;-69
2022/09/28 01:08:50;;;;;;;5.75;3.42;;;10.60;70.30;;;;;;5129176;27;20036;-69
2022/09/28 01:11:17;;;;;;;4.25;3.55;;;10.60;70.30;;;;;;5112466;28;20040;-69
2022/09/28 01:13:45;;;;;;;3.83;3.05;;;10.50;70.30;;;;;;5111752;28;20069;-69
2022/09/28 01:16:18;;;;;;;4.70;3.67;;;10.50;70.20;;;;;;5095490;28;20491;-69
2022/09/28 01:19:15;;;;;;;4.70;4.10;;;10.50;70.10;;;;;;5112506;28;20042;-69
2022/09/28 01:21:58;;;;;;;5.18;3.95;;;10.50;70.00;;;;;;5103711;28;20610;-69
2022/09/28 01:24:29;;;;;;;5.32;3.28;;;10.50;70.10;;;;;;5129903;27;20455;-69
2022/09/28 01:27:17;;;;;;;4.13;3.13;;;10.40;70.00;;;;;;5111692;28;20075;-69
2022/09/28 01:29:54;;;;;;;6.32;4.80;;;10.40;70.00;;;;;;5112048;28;20047;-69
2022/09/28 01:32:22;;;;;;;4.55;3.70;;;10.40;69.90;;;;;;5094756;28;20035;-69
2022/09/28 01:35:01;;;;;;;5.82;4.35;;;10.40;69.90;;;;;;5111420;28;20039;-69
2022/09/28 01:37:51;;;;;;;4.32;3.13;;;10.40;69.90;;;;;;5111897;28;20035;-69
2022/09/28 01:40:19;;;;;;;5.47;3.58;;;10.40;69.90;;;;;;5112159;28;20043;-69
2022/09/28 01:42:49;;;;;;;4.78;3.90;;;10.40;70.00;;;;;;5111462;28;20101;-69
2022/09/28 01:45:26;;;;;;;4.97;3.20;;;10.40;70.10;;;;;;5112079;28;20053;-69
2022/09/28 01:47:56;;;;;;;4.70;3.10;;;10.30;70.10;;;;;;5112180;28;20592;-69
2022/09/28 01:50:26;;;;;;;5.28;3.20;;;10.30;70.20;;;;;;5112251;28;20031;-69
2022/09/28 01:53:06;;;;;;;6.05;4.85;;;10.30;70.20;;;;;;5111504;28;20072;-69
2022/09/28 01:55:37;;;;;;;4.55;3.42;;;10.30;70.10;;;;;;5112134;28;20046;-69
2022/09/28 01:58:21;;;;;;;6.32;5.65;;;10.30;70.30;;;;;;5111894;28;20036;-69
2022/09/28 02:00:53;;;;;;;9.90;6.63;;;10.30;70.10;;;;;;5112294;28;20087;-69
2022/09/28 02:03:51;;;;;;;7.63;5.03;;;10.30;69.90;;;;;;5111543;28;20040;-69
2022/09/28 02:06:23;;;;;;;5.18;4.53;;;10.30;69.50;;;;;;5111420;28;20122;-69
2022/09/28 02:08:53;;;;;;;5.95;5.32;;;10.20;69.70;;;;;;5091641;28;20044;-69
2022/09/28 02:11:20;;;;;;;4.85;3.20;;;10.20;69.50;;;;;;5109949;28;20036;-69
2022/09/28 02:14:07;;;;;;;4.68;3.80;;;10.20;69.60;;;;;;5111574;28;20067;-69
2022/09/28 02:16:36;;;;;;;5.63;3.72;;;10.10;69.70;;;;;;5113876;28;20036;-69
2022/09/28 02:19:03;;;;;;;4.63;4.05;;;10.10;69.80;;;;;;5099165;28;20472;-69
2022/09/28 02:21:42;;;;;;;4.45;3.40;;;10.10;69.90;;;;;;5098985;28;20043;-69
2022/09/28 02:24:15;;;;;;;5.65;3.10;;;10.10;70.10;;;;;;5106495;28;20048;-69
2022/09/28 02:26:45;;;;;;;4.00;3.28;;;10.10;70.30;;;;;;5115359;28;20094;-69
2022/09/28 02:29:11;;;;;;;5.15;3.67;;;10.10;70.40;;;;;;5115865;28;20104;-69
2022/09/28 02:31:37;;;;;;;5.03;3.10;;;10.10;70.50;;;;;;5115958;28;20050;-69
2022/09/28 02:34:03;;;;;;;5.03;4.38;;;10.10;70.60;;;;;;5115357;28;20039;-69
2022/09/28 02:36:29;;;;;;;5.63;4.15;;;10.10;70.70;;;;;;5107001;28;20440;-69
2022/09/28 02:38:56;;;;;;;4.63;3.83;;;10.10;70.80;;;;;;5115406;28;20075;-69
2022/09/28 02:41:37;;;;;;;5.38;3.85;;;10.00;70.90;;;;;;5115452;28;20487;-69
2022/09/28 02:44:14;;;;;;;6.30;4.78;;;10.10;71.00;;;;;;5115296;28;20050;-69
2022/09/28 02:46:57;;;;;;;6.65;4.93;;;10.10;71.00;;;;;;5098192;28;20035;-69
2022/09/28 02:49:39;;;;;;;6.25;4.93;;;10.20;71.20;;;;;;5115524;28;20039;-69
2022/09/28 02:52:13;;;;;;;10.10;6.57;;;10.20;71.20;;;;;;5114571;28;20052;-69
2022/09/28 02:54:57;;;;;;;6.43;5.72;;;10.10;71.20;;;;;;5115204;28;20534;-69
2022/09/28 02:57:35;;;;;;;7.25;5.93;;;10.20;71.30;;;;;;5115015;28;20039;-69
2022/09/28 03:00:20;;;;;;;7.30;5.38;;;10.20;71.30;;;;;;5115315;28;20046;-69
2022/09/28 03:03:18;;;;;;;7.38;6.10;;;10.20;71.30;;;;;;5114431;28;20043;-69
2022/09/28 03:06:00;;;;;;;6.90;5.90;;;10.20;71.30;;;;;;5115383;28;20403;-69
2022/09/28 03:08:37;;;;;;;7.55;6.30;;;10.20;71.30;;;;;;5114852;28;20047;-69
2022/09/28 03:11:20;;;;;;;7.18;6.35;;;10.20;71.40;;;;;;5098083;28;20113;-69
2022/09/28 03:13:47;;;;;;;8.23;7.18;;;10.20;71.40;;;;;;5114704;28;20035;-69
2022/09/28 03:16:15;;;;;;;9.10;7.80;;;10.20;71.40;;;;;;5098236;28;20069;-69
2022/09/28 03:18:42;;;;;;;9.88;7.90;;;10.30;71.50;;;;;;5097709;28;20074;-69
2022/09/28 03:21:11;;;;;;;8.60;7.25;;;10.30;71.50;;;;;;5098049;28;20382;-69
2022/09/28 03:23:37;;;;;;;11.40;8.55;;;10.30;71.50;;;;;;5114229;28;20059;-69
2022/09/28 03:26:03;;;;;;;8.07;7.10;;;10.30;71.40;;;;;;5114593;28;20050;-69
2022/09/28 03:28:29;;;;;;;9.75;8.18;;;10.30;71.40;;;;;;5114438;28;20127;-69
2022/09/28 03:30:55;;;;;;;7.72;6.28;;;10.30;71.30;;;;;;5114490;28;20483;-69
2022/09/28 03:33:21;;;;;;;9.85;7.85;;;10.30;71.30;;;;;;5114108;28;20031;-69
2022/09/28 03:35:49;;;;;;;9.38;7.68;;;10.40;71.40;;;;;;5114368;28;20039;-69
2022/09/28 03:38:15;;;;;;;9.15;7.82;;;10.40;71.40;;;;;;5114417;28;20498;-69
2022/09/28 03:40:41;;;;;;;9.48;7.60;;;10.40;71.40;;;;;;5114597;28;20053;-69
2022/09/28 03:43:07;;;;;;;9.30;7.68;;;10.40;71.40;;;;;;5113550;28;20040;-69
2022/09/28 03:45:32;;;;;;;12.88;10.25;;;10.40;71.30;;;;;;5114228;28;20040;-69
2022/09/28 03:47:59;;;;;;;11.80;10.43;;;10.40;71.30;;;;;;5114112;28;20122;-69
2022/09/28 03:50:24;;;;;;;8.98;8.05;;;10.40;71.30;;;;;;5097503;28;20049;-69
2022/09/28 03:52:50;;;;;;;12.05;10.25;;;10.40;71.30;;;;;;5113711;28;20465;-69
2022/09/28 03:55:16;;;;;;;10.07;8.80;;;10.40;71.30;;;;;;5114581;28;20433;-69
2022/09/28 03:57:41;;;;;;;9.68;8.20;;;10.40;71.20;;;;;;5113851;28;20092;-69
2022/09/28 04:00:08;;;;;;;10.15;9.05;;;10.40;71.20;;;;;;5113869;28;20048;-69
2022/09/28 04:02:34;;;;;;;10.63;9.52;;;10.40;71.20;;;;;;5113720;28;20470;-69
2022/09/28 04:05:00;;;;;;;10.73;8.98;;;10.40;71.20;;;;;;5096860;28;20078;-69
2022/09/28 04:07:25;;;;;;;11.65;10.43;;;10.50;71.30;;;;;;5113749;28;20050;-69
2022/09/28 04:09:51;;;;;;;11.32;9.43;;;10.50;71.20;;;;;;5113934;28;20115;-69
2022/09/28 04:12:17;;;;;;;12.35;10.20;;;10.40;71.10;;;;;;5113508;28;20088;-69
2022/09/28 04:14:42;;;;;;;13.20;11.80;;;10.50;71.10;;;;;;5115676;27;20044;-69
2022/09/28 04:17:08;;;;;;;10.63;9.52;;;10.50;71.10;;;;;;5113721;28;20040;-69
2022/09/28 04:19:34;;;;;;;17.15;11.18;;;10.50;71.10;;;;;;5113643;28;20082;-69
2022/09/28 04:22:00;;;;;;;10.88;9.55;;;10.50;71.00;;;;;;5096406;28;20043;-69
2022/09/28 04:24:26;;;;;;;10.10;9.05;;;10.40;70.80;;;;;;5113415;28;20403;-69
2022/09/28 04:29:14;;;;;;;10.85;9.68;;;10.40;70.80;;;;;;5113282;28;20066;-69
2022/09/28 04:29:41;;;;;;;10.52;8.73;;;10.50;70.90;;;;;;5084896;28;20047;-69
2022/09/28 04:32:08;;;;;;;10.40;8.95;;;10.40;70.90;;;;;;5113158;28;20110;-69
2022/09/28 04:34:34;;;;;;;12.23;9.57;;;10.40;70.90;;;;;;5113413;28;20044;-69
2022/09/28 04:37:00;;;;;;;9.60;8.55;;;10.40;70.90;;;;;;5113498;28;20548;-69
2022/09/28 04:39:25;;;;;;;11.07;9.35;;;10.40;70.90;;;;;;5112885;28;20494;-69
2022/09/28 04:41:51;;;;;;;10.18;9.00;;;10.50;71.00;;;;;;5113426;28;20036;-69
2022/09/28 04:44:17;;;;;;;9.93;8.93;;;10.50;71.00;;;;;;5100466;28;20442;-69
2022/09/28 04:46:42;;;;;;;10.55;9.45;;;10.50;71.00;;;;;;5112973;28;20036;-69
2022/09/28 04:49:09;;;;;;;10.25;9.02;;;10.50;71.00;;;;;;5113279;28;20062;-69
2022/09/28 04:51:35;;;;;;;10.48;9.43;;;10.50;71.00;;;;;;5113254;28;20126;-69
2022/09/28 04:54:00;;;;;;;11.82;10.63;;;10.50;71.00;;;;;;5112609;28;20459;-69
2022/09/28 04:56:26;;;;;;;10.75;9.65;;;10.50;71.00;;;;;;5113143;28;20032;-69
2022/09/28 04:58:52;;;;;;;9.90;8.90;;;10.50;71.00;;;;;;5112978;28;20051;-69
2022/09/28 05:01:22;;;;;;;11.13;9.38;;;10.50;71.10;;;;;;5112786;28;20490;-69
2022/09/28 05:03:47;;;;;;;12.38;11.15;;;10.50;71.10;;;;;;5112324;28;20093;-69
2022/09/28 05:06:14;;;;;;;10.52;9.38;;;10.50;71.10;;;;;;5129267;27;20040;-68
2022/09/28 05:08:41;;;;;;;9.77;8.77;;;10.50;71.10;;;;;;5111800;28;20168;-68
2022/09/28 05:11:10;;;;;;;11.23;10.10;;;10.50;71.50;;;;;;5095458;28;20390;-69
2022/09/28 05:13:40;;;;;;;10.73;9.63;;;10.50;71.10;;;;;;5112327;28;20479;-69
2022/09/28 05:16:07;;;;;;;9.75;8.75;;;10.50;71.10;;;;;;5112404;28;20507;-68
2022/09/28 05:18:33;;;;;;;11.00;9.80;;;10.60;71.20;;;;;;5095688;28;20036;-69
2022/09/28 05:21:00;;;;;;;11.15;10.05;;;10.60;71.20;;;;;;5095658;28;20040;-69
2022/09/28 05:23:26;;;;;;;10.75;9.68;;;10.60;71.20;;;;;;5112226;28;20043;-69
2022/09/28 05:25:51;;;;;;;11.15;10.05;;;10.60;71.20;;;;;;5112439;28;20114;-69
2022/09/28 05:28:26;;;;;;;18.05;13.23;;;10.60;71.20;;;;;;5095245;28;20088;-69
2022/09/28 05:30:51;;;;;;;12.32;11.02;;;10.60;71.20;;;;;;5112364;28;20051;-69
2022/09/28 05:33:17;;;;;;;10.10;8.80;;;10.60;71.20;;;;;;5095176;28;20484;-69
2022/09/28 05:35:43;;;;;;;11.65;9.90;;;10.60;71.20;;;;;;5111625;28;20044;-69
2022/09/28 05:38:08;;;;;;;10.48;9.38;;;10.60;71.20;;;;;;5112162;28;20035;-69
2022/09/28 05:40:34;;;;;;;10.30;9.30;;;10.60;71.20;;;;;;5101125;28;20048;-69
2022/09/28 05:43:01;;;;;;;11.02;9.55;;;10.60;71.30;;;;;;5112128;28;20092;-69
2022/09/28 05:45:27;;;;;;;10.57;9.48;;;10.60;71.30;;;;;;5112038;28;20115;-69
2022/09/28 05:47:53;;;;;;;11.30;10.10;;;10.60;71.30;;;;;;5112439;28;20055;-69
2022/09/28 05:50:19;;;;;;;11.82;10.63;;;10.60;71.30;;;;;;5111002;28;20036;-69
2022/09/28 05:52:45;;;;;;;11.32;10.15;;;10.60;71.30;;;;;;5111830;28;20096;-69
2022/09/28 05:55:12;;;;;;;11.82;10.15;;;10.60;71.80;;;;;;5111574;28;20076;-69
2022/09/28 05:57:38;;;;;;;12.93;11.18;;;10.60;71.40;;;;;;5112228;28;20035;-69
2022/09/28 06:00:08;;;;;;;13.75;11.23;;;10.60;71.40;;;;;;5124966;28;20491;-72
2022/09/28 06:02:34;;;;;;;14.55;12.23;;;10.60;71.50;;;;;;5102530;28;20101;-70
2022/09/28 06:05:00;;;;;;;13.70;12.00;;;10.60;71.50;;;;;;5110868;28;20082;-70
2022/09/28 06:07:26;;;;;;;14.10;12.60;;;10.60;71.50;;;;;;5129531;27;20039;-70
2022/09/28 06:09:52;;;;;;;13.00;10.73;;;10.60;71.50;;;;;;5122729;28;20083;-70
2022/09/28 06:12:18;;;;;;;12.82;11.43;;;10.60;71.60;;;;;;5112012;28;20096;-69
2022/09/28 06:14:45;;;;;;;12.88;11.43;;;10.60;71.60;;;;;;5111915;28;20035;-69
2022/09/28 06:17:11;;;;;;;15.32;12.73;;;10.60;71.60;;;;;;5111682;28;20040;-70
2022/09/28 06:19:37;;;;;;;12.30;10.93;;;10.70;71.70;;;;;;5110291;28;20402;-70
2022/09/28 06:22:03;;;;;;;15.15;12.98;;;10.70;71.70;;;;;;5111704;28;20084;-70
2022/09/28 06:24:29;;;;;;;13.15;10.93;;;10.70;71.80;;;;;;5095200;28;20031;-69
2022/09/28 06:26:54;;;;;;;14.95;12.90;;;10.70;71.80;;;;;;5111289;28;20407;-70
2022/09/28 06:29:20;;;;;;;16.58;14.52;;;10.70;71.90;;;;;;5094754;28;20422;-70
2022/09/28 06:31:46;;;;;;;16.75;13.18;;;10.80;72.00;;;;;;5111548;28;20042;-70
2022/09/28 06:34:12;;;;;;;16.15;13.65;;;10.70;72.00;;;;;;5094818;28;20044;-70
2022/09/28 06:36:38;;;;;;;15.35;12.98;;;10.80;72.10;;;;;;5111590;28;20042;-70
2022/09/28 06:39:05;;;;;;;21.50;17.70;;;10.80;72.10;;;;;;5103195;28;20051;-70
2022/09/28 06:41:30;;;;;;;18.23;15.30;;;10.80;72.20;;;;;;5091492;28;20492;-70
2022/09/28 06:43:56;;;;;;;17.77;14.45;;;10.80;72.30;;;;;;5125070;28;20071;-70
2022/09/28 06:46:22;;;;;;;17.15;14.23;;;10.80;72.30;;;;;;5126974;28;20035;-70
2022/09/28 06:48:48;;;;;;;23.08;15.75;;;10.80;72.30;;;;;;5127927;28;20440;-69
2022/09/28 06:51:14;;;;;;;17.70;14.95;;;10.90;72.50;;;;;;5108421;28;20039;-69
2022/09/28 06:53:40;;;;;;;15.30;13.00;;;10.90;72.60;;;;;;5125530;28;20131;-69
2022/09/28 06:56:09;;;;;;;16.95;14.05;;;10.90;72.70;;;;;;5122995;28;20047;-69
2022/09/28 06:58:35;;;;;;;17.35;15.05;;;11.00;72.70;;;;;;5126271;28;20039;-69
2022/09/28 07:01:01;;;;;;;19.08;15.93;;;11.00;72.60;;;;;;5064353;28;20053;-67
2022/09/28 07:03:26;;;;;;;18.70;15.35;;;11.00;72.60;;;;;;5066126;28;20622;-67
2022/09/28 07:05:53;;;;;;;14.68;13.07;;;11.00;72.50;;;;;;5046608;28;20480;-67
2022/09/28 07:08:23;;;;;;;16.85;13.38;;;11.10;72.40;;;;;;5049813;28;20079;-67
2022/09/28 07:10:56;;;;;;;17.67;14.23;;;11.10;72.40;;;;;;5048803;28;20044;-69
2022/09/28 07:13:31;;;;;;;15.65;13.20;;;11.10;72.70;;;;;;5032097;28;20119;-70
2022/09/28 07:16:00;;;;;;;18.85;14.90;;;11.10;72.30;;;;;;5044278;28;20045;-69
2022/09/28 07:18:27;;;;;;;17.02;15.15;;;11.10;72.20;;;;;;5049249;28;20102;-69
2022/09/28 07:20:56;;;;;;;18.00;16.10;;;11.20;72.40;;;;;;5049999;28;20128;-69
2022/09/28 07:23:22;;;;;;;16.67;13.73;;;11.20;72.50;;;;;;5049634;28;20068;-69
2022/09/28 07:25:49;;;;;;;19.00;14.98;;;11.20;72.50;;;;;;5048832;28;20508;-69
2022/09/28 07:28:16;;;;;;;15.20;13.57;;;11.20;72.60;;;;;;5047193;28;20056;-69
2022/09/28 07:30:43;;;;;;;15.55;13.75;;;11.30;72.80;;;;;;5048876;28;20049;-69
2022/09/28 07:33:11;;;;;;;14.93;13.30;;;11.30;73.00;;;;;;5049269;28;20103;-69
2022/09/28 07:35:37;;;;;;;15.80;13.35;;;11.40;73.20;;;;;;5045970;28;20041;-69
2022/09/28 07:38:05;;;;;;;13.48;11.73;;;11.50;73.20;;;;;;5049588;28;20045;-69
2022/09/28 07:43:19;;;;;;;12.65;10.68;;;11.60;72.80;;;;;;5032619;28;20046;-69
2022/09/28 07:45:49;;;;;;;14.10;12.18;;;11.70;72.50;;;;;;5032605;28;20057;-69
2022/09/28 07:48:15;;;;;;;13.63;11.98;;;11.70;72.40;;;;;;5034703;28;20120;-69
2022/09/28 07:50:46;;;;;;;15.40;12.52;;;11.80;72.30;;;;;;5030349;28;20061;-70
2022/09/28 07:53:12;;;;;;;15.63;12.43;;;11.80;72.30;;;;;;5028881;28;20060;-70
2022/09/28 07:55:37;;;;;;;12.55;10.93;;;11.80;72.20;;;;;;5050105;28;20034;-70
2022/09/28 07:58:03;;;;;;;13.32;10.80;;;11.80;72.00;;;;;;5033455;28;20046;-70
2022/09/28 08:00:31;;;;;;;12.73;9.82;;;11.80;71.90;;;;;;5050324;28;20051;-70
2022/09/28 08:03:01;;;;;;;12.90;10.50;;;11.90;72.00;;;;;;5033410;28;20489;-70
2022/09/28 08:05:31;;;;;;;11.45;9.50;;;12.00;72.10;;;;;;5050486;28;20158;-70
2022/09/28 08:07:58;;;;;;;10.63;8.98;;;12.10;72.50;;;;;;5041329;28;20041;-70
2022/09/28 08:10:25;;;;;;;11.23;9.18;;;12.20;72.90;;;;;;5034654;28;20126;-70
2022/09/28 08:13:02;;;;;;;8.77;7.88;;;12.40;72.90;;;;;;5016321;28;20045;-70
2022/09/28 08:15:28;;;;;;;9.23;7.95;;;12.80;72.60;;;;;;5033265;28;20138;-71
2022/09/28 08:17:54;;;;;;;9.20;8.13;;;13.00;71.60;;;;;;5016533;28;20037;-70
2022/09/28 08:23:19;;;;;;;8.73;7.22;;;13.50;70.90;;;;;;5020495;28;20128;-70
2022/09/28 08:25:49;;;;;;;11.65;7.55;;;13.80;70.80;;;;;;5044867;28;20112;-70
2022/09/28 08:28:18;;;;;;;9.77;8.00;;;14.20;70.60;;;;;;5039687;28;20060;-70
2022/09/28 08:30:45;;;;;;;8.68;7.53;;;14.60;69.90;;;;;;5049636;28;20049;-70
2022/09/28 08:33:12;;;;;;;7.55;6.63;;;14.90;68.40;;;;;;5049162;28;20056;-69
2022/09/28 08:35:39;;;;;;;8.57;5.93;;;15.20;67.20;;;;;;5045973;28;20503;-68
2022/09/28 08:38:05;;;;;;;8.25;5.80;;;15.40;66.40;;;;;;5021127;28;20048;-69
2022/09/28 08:40:41;;;;;;;7.07;5.70;;;15.70;65.20;;;;;;5016440;28;20488;-69
2022/09/28 08:43:43;;;;;;;5.70;4.85;;;15.90;63.70;;;;;;5042129;28;20046;-69
2022/09/28 08:46:11;;;;;;;5.93;5.25;;;16.10;63.00;;;;;;5005127;28;20053;-69
2022/09/28 08:48:52;;;;;;;5.80;4.95;;;16.30;62.20;;;;;;5023671;28;20393;-68
2022/09/28 08:51:24;;;;;;;6.18;4.85;;;16.50;61.50;;;;;;5049325;28;20063;-69
2022/09/28 08:53:50;;;;;;;6.28;4.55;;;16.60;61.50;;;;;;5047643;28;20041;-69
2022/09/28 08:56:38;;;;;;;4.90;3.58;;;16.80;61.20;;;;;;5048810;28;20546;-69
2022/09/28 08:59:11;;;;;;;5.43;3.78;;;17.00;61.00;;;;;;5036261;28;20052;-69
2022/09/28 09:01:54;;;;;;;3.88;3.15;;;17.20;60.90;;;;;;5012803;28;20045;-69
2022/09/28 09:04:20;;;;;;;4.30;3.70;;;17.50;60.60;;;;;;5029497;28;20466;-69
2022/09/28 09:06:48;;;;;;;4.28;3.88;;;17.70;60.10;;;;;;5032421;28;20081;-69
2022/09/28 09:09:30;;;;;;;3.60;3.05;;;17.90;58.90;;;;;;5032210;28;20100;-69
2022/09/28 09:12:29;;;;;;;4.30;3.20;;;18.10;58.80;;;;;;5048908;28;20149;-68
2022/09/28 09:15:10;;;;;;;5.78;3.47;;;18.20;57.60;;;;;;5029896;28;20041;-69
2022/09/28 09:17:57;;;;;;;3.33;2.70;;;18.30;57.30;;;;;;5032024;28;20041;-68
2022/09/28 09:20:46;;;;;;;3.05;2.55;;;18.40;57.20;;;;;;5012264;28;20050;-69
2022/09/28 09:23:30;;;;;;;5.25;3.33;;;18.50;57.00;;;;;;5019263;28;20049;-68
2022/09/28 09:26:02;;;;;;;;;;;18.60;56.90;;;;;;5049321;28;20045;-68
2022/09/28 09:28:34;;;;;;;2.65;1.92;;;18.70;58.00;;;;;;5031757;28;19921;-68
2022/09/28 09:31:44;;;;;;;3.03;1.92;;;18.80;57.00;;;;;;5031910;28;20037;-68
2022/09/28 09:34:30;;;;;;;3.47;2.45;;;18.90;56.40;;;;;;5031660;28;20041;-70
2022/09/28 09:37:21;;;;;;;4.75;2.03;;;19.10;53.70;;;;;;5011587;28;20041;-71
2022/09/28 09:40:08;;;;;;;2.53;1.50;;;19.10;55.10;;;;;;5031739;28;20041;-69
2022/09/28 09:42:42;;;;;;;2.08;1.40;;;19.10;54.40;;;;;;5048194;28;20175;-69
2022/09/28 09:45:14;;;;;;;;;;;19.10;54.60;;;;;;5031986;28;20045;-68
2022/09/28 09:47:46;;;;;;;3.60;1.40;;;19.10;56.40;;;;;;5031842;28;20003;-69
2022/09/28 09:50:32;;;;;;;2.58;1.70;;;19.20;55.60;;;;;;5032676;28;20045;-69
2022/09/28 09:53:26;;;;;;;2.40;1.40;;;19.30;55.30;;;;;;5028764;28;20033;-69
2022/09/28 09:56:07;;;;;;;2.22;1.20;;;19.40;54.90;;;;;;5048325;28;20048;-69
2022/09/28 09:58:41;;;;;;;3.08;1.48;;;19.30;54.10;;;;;;5034765;28;20030;-69
2022/09/28 10:01:14;;;;;;;1.63;0.80;;;19.30;54.00;;;;;;5048226;28;20080;-69
2022/09/28 10:03:47;;;;;;;2.75;1.10;;;19.30;53.80;;;;;;5039935;28;20172;-69
2022/09/28 10:06:23;;;;;;;1.92;1.02;;;19.20;54.00;;;;;;5048382;28;20047;-69
2022/09/28 10:09:02;;;;;;;2.38;0.60;;;19.20;53.70;;;;;;5048206;28;20049;-69
2022/09/28 10:11:46;;;;;;;3.53;0.82;;;19.10;52.70;;;;;;5031463;28;20183;-69
2022/09/28 10:14:20;;;;;;;1.60;0.95;;;19.10;53.30;;;;;;5031297;28;20338;-69
2022/09/28 10:16:47;;;;;;;1.45;0.75;;;19.10;53.30;;;;;;5031678;28;20038;-69
2022/09/28 10:19:17;;;;;;;1.92;1.02;;;19.00;53.10;;;;;;5031143;28;20096;-69
2022/09/28 10:21:45;;;;;;;1.25;0.73;;;19.00;53.00;;;;;;5047938;28;20153;-69
2022/09/28 10:24:17;;;;;;;1.02;0.68;;;18.90;53.40;;;;;;5036828;28;20045;-69
2022/09/28 10:26:48;;;;;;;0.90;0.50;;;18.80;53.70;;;;;;5047915;28;20108;-69
2022/09/28 10:29:18;;;;;;;0.30;0.30;;;18.80;53.30;;;;;;5031082;28;20050;-68
2022/09/28 10:31:52;;;;;;;1.52;0.55;;;18.70;53.20;;;;;;5031323;28;20120;-68
2022/09/28 10:34:26;;;;;;;0.88;0.47;;;18.70;53.60;;;;;;4998307;28;20185;-68
2022/09/28 10:36:59;;;;;;;1.23;0.40;;;18.50;53.90;;;;;;5032446;28;20041;-68
2022/09/28 10:39:54;;;;;;;1.20;0.63;;;18.50;53.90;;;;;;5035126;28;20416;-68
2022/09/28 10:42:28;;;;;;;0.98;0.40;;;18.40;53.80;;;;;;5051721;28;20126;-68
2022/09/28 10:45:03;;;;;;;1.73;0.30;;;18.30;53.90;;;;;;5015160;28;20120;-68
2022/09/28 10:47:33;;;;;;;0.82;0.40;;;18.30;54.10;;;;;;5015644;28;20457;-68
2022/09/28 10:49:59;;;;;;;1.02;0.47;;;18.20;54.70;;;;;;5019519;28;20042;-68
2022/09/28 10:52:38;;;;;;;1.98;0.60;;;18.20;55.00;;;;;;5035299;28;20124;-68
2022/09/28 10:55:27;;;;;;;0.73;0.40;;;18.10;54.10;;;;;;5034612;28;20443;-68
2022/09/28 10:57:53;;;;;;;2.63;0.63;;;18.10;53.20;;;;;;5032004;28;20046;-68
2022/09/28 11:00:33;;;;;;;3.25;0.70;;;18.00;52.60;;;;;;5040224;28;20069;-68
2022/09/28 11:03:01;;;;;;;1.70;0.40;;;18.00;52.60;;;;;;5051094;28;20049;-68
2022/09/28 11:05:26;;;;;;;1.10;0.40;;;17.90;53.20;;;;;;5034468;28;20527;-68
2022/09/28 11:07:54;;;;;;;1.27;0.40;;;17.80;53.20;;;;;;5051642;28;20046;-68
2022/09/28 11:10:26;;;;;;;2.05;0.47;;;17.70;52.60;;;;;;5046538;28;20069;-68
2022/09/28 11:12:54;;;;;;;1.45;0.50;;;17.60;52.90;;;;;;5016652;28;20046;-68
2022/09/28 11:15:24;;;;;;;1.45;0.40;;;17.60;53.40;;;;;;5047526;28;20514;-71
2022/09/28 11:17:50;;;;;;;2.30;0.50;;;17.40;53.20;;;;;;5014560;28;20121;-70
2022/09/28 11:20:29;;;;;;;1.20;0.35;;;17.30;52.80;;;;;;5016451;28;20069;-70
2022/09/28 11:23:13;;;;;;;2.00;0.40;;;17.10;53.20;;;;;;5050829;28;20041;-70
2022/09/28 11:25:40;;;;;;;1.15;0.20;;;17.10;53.90;;;;;;5033998;28;20041;-70
2022/09/28 11:28:20;;;;;;;2.25;0.40;;;17.00;53.90;;;;;;5050690;28;20536;-69
2022/09/28 11:30:50;;;;;;;1.48;0.30;;;17.00;54.20;;;;;;5046386;28;20041;-69
2022/09/28 11:33:33;;;;;;;0.93;0.30;;;17.00;54.90;;;;;;5019088;28;20485;-69
2022/09/28 11:36:15;;;;;;;1.45;0.30;;;17.00;54.70;;;;;;5050555;28;20041;-69
2022/09/28 11:39:07;;;;;;;1.50;0.45;;;17.10;54.60;;;;;;5033918;28;20095;-70
2022/09/28 11:41:50;;;;;;;1.65;0.20;;;17.10;55.10;;;;;;5029160;28;20056;-69
2022/09/28 11:44:31;;;;;;;1.00;0.70;;;17.10;55.50;;;;;;5017211;28;20129;-69
2022/09/28 11:46:59;;;;;;;1.00;0.40;;;17.10;54.90;;;;;;5033977;28;20042;-69
2022/09/28 11:49:37;;;;;;;1.33;0.50;;;17.10;54.00;;;;;;5049229;28;20107;-69
2022/09/28 11:52:13;;;;;;;0.75;0.50;;;17.00;54.60;;;;;;5037690;28;20038;-69
2022/09/28 11:54:51;;;;;;;1.05;0.38;;;16.90;55.50;;;;;;5029260;28;20084;-72
2022/09/28 11:57:25;;;;;;;0.68;0.68;;;16.90;54.70;;;;;;5054772;28;20512;-71
2022/09/28 11:59:55;;;;;;;1.48;0.30;;;16.80;54.80;;;;;;5050500;28;20067;-72
2022/09/28 12:02:35;;;;;;;0.63;0.20;;;16.70;55.10;;;;;;5036176;28;20136;-74
2022/09/28 12:05:22;;;;;;;0.30;0.20;;;16.70;55.50;;;;;;5048669;28;20041;-73
2022/09/28 12:07:58;;;;;;;1.25;0.10;;;16.60;55.70;;;;;;5033332;28;20042;-73
2022/09/28 12:10:33;;;;;;;1.23;0.10;;;16.60;56.40;;;;;;5050245;28;20046;-74
2022/09/28 12:13:08;;;;;;;1.08;0.10;;;16.60;55.90;;;;;;5049258;28;20037;-73
2022/09/28 12:16:08;;;;;;;0.50;0.10;;;16.60;55.80;;;;;;5044012;28;20041;-73
2022/09/28 12:18:47;;;;;;;0.25;0.10;;;16.60;54.60;;;;;;5030024;28;20482;-73
2022/09/28 12:21:31;;;;;;;0.90;0.00;;;16.60;54.60;;;;;;5031910;28;20446;-74
2022/09/28 12:24:22;;;;;;;0.57;0.20;;;16.50;54.30;;;;;;5041799;28;20108;-74
2022/09/28 12:26:59;;;;;;;0.20;0.10;;;16.50;53.20;;;;;;5018807;28;20092;-73
2022/09/28 12:29:57;;;;;;;0.10;0.05;;;16.50;53.60;;;;;;5049727;28;20057;-74
2022/09/28 12:32:27;;;;;;;0.75;0.10;;;16.40;53.10;;;;;;5039808;28;20034;-74
2022/09/28 12:34:53;;;;;;;0.00;0.00;;;16.40;53.30;;;;;;5028645;28;20073;-74
2022/09/28 12:37:49;;;;;;;0.22;0.20;;;16.30;52.60;;;;;;5041353;28;20073;-74
2022/09/28 12:40:36;;;;;;;0.55;0.20;;;16.30;53.50;;;;;;5032431;28;20071;-74
2022/09/28 12:43:35;;;;;;;1.38;0.10;;;16.20;54.70;;;;;;5034503;28;20049;-74
2022/09/28 12:46:29;;;;;;;0.68;0.20;;;16.20;54.80;;;;;;4998785;28;20564;-73
2022/09/28 12:49:03;;;;;;;0.32;0.20;;;16.20;55.30;;;;;;5032943;28;20041;-74
2022/09/28 12:51:51;;;;;;;1.80;0.30;;;16.20;55.50;;;;;;5051808;28;20132;-73
2022/09/28 12:54:26;;;;;;;2.22;0.20;;;16.20;55.70;;;;;;5032700;28;20041;-73
2022/09/28 12:57:14;;;;;;;0.22;0.10;;;16.20;55.70;;;;;;5032335;28;20116;-73
2022/09/28 13:00:05;;;;;;;0.13;0.10;;;16.20;56.20;;;;;;5053310;28;20202;-73
2022/09/28 13:02:43;;;;;;;1.38;0.20;;;16.30;56.40;;;;;;5012974;28;20041;-72
2022/09/28 13:05:27;;;;;;;0.77;0.20;;;16.30;56.60;;;;;;5035282;28;20048;-72
2022/09/28 13:08:09;;;;;;;1.55;0.38;;;16.30;56.80;;;;;;5024431;28;20044;-72
2022/09/28 19:25:40;;;;;;;2.95;1.33;;;10.70;66.60;;;;;;5098246;27;1938589;-70
2022/09/28 19:28:06;;;;;;;2.05;1.00;;;10.40;64.40;;;;;;5108671;28;20051;-70
2022/09/28 19:30:31;;;;;;;1.77;1.23;;;10.40;65.70;;;;;;5106337;28;20047;-70